createdAt,value
2017-08-19T00:02:00.042Z,16.30
2017-08-19T00:04:27.625Z,16.30
2017-08-19T00:06:55.251Z,16.30
2017-08-19T00:09:22.832Z,16.30
2017-08-19T00:11:50.407Z,16.30
2017-08-19T00:14:18.254Z,16.30
2017-08-19T00:16:46.812Z,16.30
2017-08-19T00:19:14.464Z,16.30
2017-08-19T00:21:42.125Z,16.30
2017-08-19T00:24:09.692Z,16.20
2017-08-19T00:26:37.301Z,16.20
2017-08-19T00:29:05.783Z,16.10
2017-08-19T00:31:34.524Z,16.10
2017-08-19T00:34:02.095Z,16.10
2017-08-19T00:36:29.679Z,16.10
2017-08-19T00:38:57.263Z,16.10
2017-08-19T00:41:25.640Z,16.10
2017-08-19T00:43:54.278Z,16.20
2017-08-19T00:46:21.829Z,16.20
2017-08-19T00:48:49.398Z,16.10
2017-08-19T00:51:17.003Z,16.00
2017-08-19T00:53:45.383Z,15.90
2017-08-19T00:56:13.295Z,15.90
2017-08-19T00:58:40.871Z,16.10
2017-08-19T01:01:09.025Z,16.20
2017-08-19T01:03:36.625Z,16.20
2017-08-19T01:06:04.970Z,15.90
2017-08-19T01:08:32.574Z,15.80
2017-08-19T01:11:00.915Z,15.80
2017-08-19T01:13:28.771Z,15.70
2017-08-19T01:15:56.343Z,15.80
2017-08-19T01:18:23.915Z,15.80
2017-08-19T01:20:51.528Z,15.80
2017-08-19T01:23:19.083Z,15.80
2017-08-19T01:25:58.775Z,15.90
2017-08-19T01:28:26.357Z,15.90
2017-08-19T01:30:55.004Z,15.80
2017-08-19T01:33:22.601Z,15.80
2017-08-19T01:35:50.332Z,15.80
2017-08-19T01:38:17.938Z,15.80
2017-08-19T01:40:45.516Z,15.90
2017-08-19T01:43:13.112Z,15.90
2017-08-19T01:45:40.706Z,15.90
2017-08-19T01:48:13.880Z,16.00
2017-08-19T01:50:44.574Z,15.90
2017-08-19T01:53:12.427Z,15.90
2017-08-19T01:55:39.989Z,15.90
2017-08-19T01:58:07.541Z,15.90
2017-08-19T02:00:35.205Z,15.90
2017-08-19T02:03:02.748Z,15.80
2017-08-19T02:05:30.392Z,15.80
2017-08-19T02:07:57.965Z,15.90
2017-08-19T02:10:25.888Z,15.90
2017-08-19T02:12:53.466Z,15.90
2017-08-19T02:15:21.066Z,15.90
2017-08-19T02:17:48.675Z,15.90
2017-08-19T02:20:16.252Z,16.00
2017-08-19T02:22:44.615Z,15.90
2017-08-19T02:25:12.198Z,15.90
2017-08-19T02:27:40.855Z,15.80
2017-08-19T02:30:08.477Z,15.80
2017-08-19T02:32:36.043Z,15.80
2017-08-19T02:35:03.645Z,15.70
2017-08-19T02:37:31.214Z,15.60
2017-08-19T02:39:58.831Z,15.50
2017-08-19T02:42:26.417Z,15.50
2017-08-19T02:44:54.372Z,15.50
2017-08-19T02:47:21.937Z,15.60
2017-08-19T02:49:49.522Z,15.70
2017-08-19T02:52:17.898Z,15.70
2017-08-19T02:54:46.418Z,15.70
2017-08-19T02:57:14.017Z,15.70
2017-08-19T02:59:41.590Z,15.70
2017-08-19T03:02:09.206Z,15.80
2017-08-19T03:04:36.865Z,15.70
2017-08-19T03:07:04.454Z,15.60
2017-08-19T03:09:32.083Z,15.60
2017-08-19T03:11:59.811Z,15.50
2017-08-19T03:14:28.199Z,15.50
2017-08-19T03:16:55.800Z,15.40
2017-08-19T03:19:23.374Z,15.40
2017-08-19T03:21:51.439Z,15.30
2017-08-19T03:24:19.056Z,15.20
2017-08-19T03:26:46.643Z,15.00
2017-08-19T03:29:14.244Z,14.90
2017-08-19T03:31:41.820Z,14.90
2017-08-19T03:34:09.514Z,14.80
2017-08-19T03:36:37.095Z,14.70
2017-08-19T03:39:04.931Z,14.70
2017-08-19T03:41:32.530Z,14.70
2017-08-19T03:44:00.102Z,14.70
2017-08-19T03:46:27.704Z,14.70
2017-08-19T03:48:55.285Z,14.70
2017-08-19T03:51:22.874Z,14.70
2017-08-19T03:53:50.451Z,14.70
2017-08-19T03:56:18.384Z,14.70
2017-08-19T03:58:45.959Z,14.60
2017-08-19T04:01:13.577Z,14.60
2017-08-19T04:03:41.180Z,14.50
2017-08-19T04:06:08.763Z,14.40
2017-08-19T04:08:36.351Z,14.40
2017-08-19T04:11:03.937Z,14.30
2017-08-19T04:13:31.840Z,14.30
2017-08-19T04:15:59.426Z,14.40
2017-08-19T04:18:27.759Z,14.10
2017-08-19T04:20:55.359Z,14.10
2017-08-19T04:23:23.807Z,14.00
2017-08-19T04:25:51.403Z,14.00
2017-08-19T04:28:18.984Z,14.00
2017-08-19T04:30:46.912Z,13.90
2017-08-19T04:33:15.270Z,13.90
2017-08-19T04:35:42.847Z,13.90
2017-08-19T04:38:11.219Z,13.80
2017-08-19T04:40:38.838Z,13.80
2017-08-19T04:43:06.439Z,13.80
2017-08-19T04:45:34.051Z,13.70
2017-08-19T04:48:01.954Z,13.80
2017-08-19T04:50:29.540Z,13.80
2017-08-19T04:52:57.121Z,13.80
2017-08-19T04:55:24.719Z,13.80
2017-08-19T04:57:52.293Z,13.80
2017-08-19T05:00:19.865Z,14.20
2017-08-19T05:02:47.423Z,15.20
2017-08-19T05:05:15.381Z,15.00
2017-08-19T05:07:42.966Z,14.80
2017-08-19T05:10:11.312Z,14.50
2017-08-19T05:12:38.912Z,14.50
2017-08-19T05:15:06.543Z,14.40
2017-08-19T05:17:34.179Z,14.40
2017-08-19T05:20:01.758Z,14.40
2017-08-19T05:22:29.720Z,14.30
2017-08-19T05:24:57.306Z,14.30
2017-08-19T05:27:25.008Z,14.30
2017-08-19T05:29:52.591Z,14.30
2017-08-19T05:32:20.180Z,14.30
2017-08-19T05:34:47.778Z,14.40
2017-08-19T05:37:15.450Z,14.40
2017-08-19T05:39:43.342Z,14.70
2017-08-19T05:42:10.920Z,15.90
2017-08-19T05:44:38.502Z,17.70
2017-08-19T05:47:06.873Z,20.80
2017-08-19T05:49:35.231Z,22.30
2017-08-19T05:52:02.840Z,22.20
2017-08-19T05:54:30.399Z,23.10
2017-08-19T05:56:58.301Z,22.90
2017-08-19T05:59:25.864Z,23.50
2017-08-19T06:01:53.421Z,25.30
2017-08-19T06:04:21.028Z,25.90
2017-08-19T06:06:48.630Z,25.70
2017-08-19T06:09:16.238Z,26.10
2017-08-19T06:11:43.820Z,26.20
2017-08-19T06:14:11.723Z,27.00
2017-08-19T06:16:39.327Z,26.60
2017-08-19T06:19:07.684Z,26.60
2017-08-19T06:21:35.268Z,26.60
2017-08-19T06:24:02.852Z,26.20
2017-08-19T06:26:30.729Z,26.60
2017-08-19T06:28:58.368Z,27.10
2017-08-19T06:31:25.940Z,28.50
2017-08-19T06:33:53.532Z,29.60
2017-08-19T06:36:21.100Z,30.30
2017-08-19T06:38:48.969Z,30.50
2017-08-19T06:41:16.597Z,30.10
2017-08-19T06:43:44.287Z,29.10
2017-08-19T06:46:11.903Z,29.40
2017-08-19T06:48:39.705Z,30.10
2017-08-19T06:51:07.850Z,30.90
2017-08-19T06:53:35.420Z,30.70
2017-08-19T06:56:03.013Z,30.00
2017-08-19T06:58:30.604Z,29.40
2017-08-19T07:00:58.954Z,28.80
2017-08-19T07:03:26.543Z,28.70
2017-08-19T07:05:54.129Z,28.30
2017-08-19T07:08:22.128Z,29.50
2017-08-19T07:10:49.759Z,31.20
2017-08-19T07:13:17.331Z,32.20
2017-08-19T07:15:44.924Z,30.70
2017-08-19T07:18:12.571Z,29.20
2017-08-19T07:20:40.179Z,27.80
2017-08-19T07:23:07.758Z,27.30
2017-08-19T07:25:35.650Z,27.90
2017-08-19T07:28:03.215Z,29.20
2017-08-19T07:30:30.813Z,29.60
2017-08-19T07:32:59.194Z,31.00
2017-08-19T07:35:27.544Z,31.30
2017-08-19T07:37:55.150Z,31.30
2017-08-19T07:40:22.731Z,31.00
2017-08-19T07:42:50.714Z,31.20
2017-08-19T07:45:18.272Z,31.50
2017-08-19T07:47:45.846Z,31.80
2017-08-19T07:50:13.447Z,30.20
2017-08-19T07:52:41.164Z,27.60
2017-08-19T07:55:08.767Z,27.70
2017-08-19T07:57:36.339Z,27.00
2017-08-19T08:00:04.346Z,25.70
2017-08-19T08:02:31.962Z,25.00
2017-08-19T08:05:00.358Z,25.70
2017-08-19T08:07:27.933Z,26.80
2017-08-19T08:09:55.512Z,28.60
2017-08-19T08:12:23.130Z,29.40
2017-08-19T08:14:50.703Z,29.60
2017-08-19T08:17:18.591Z,29.60
2017-08-19T08:19:46.157Z,30.00
2017-08-19T08:22:13.741Z,31.80
2017-08-19T08:24:42.127Z,34.90
2017-08-19T08:27:10.480Z,35.90
2017-08-19T08:29:38.090Z,35.80
2017-08-19T08:32:05.677Z,35.00
2017-08-19T08:34:33.560Z,34.70
2017-08-19T08:37:01.140Z,34.80
2017-08-19T08:39:29.528Z,36.20
2017-08-19T08:41:57.901Z,35.60
2017-08-19T08:44:26.261Z,33.60
2017-08-19T08:46:53.865Z,33.50
2017-08-19T08:49:21.456Z,34.00
2017-08-19T08:51:49.328Z,34.80
2017-08-19T08:54:16.910Z,34.30
2017-08-19T08:56:44.494Z,34.90
2017-08-19T08:59:12.927Z,37.10
2017-08-19T09:01:40.512Z,37.10
2017-08-19T09:04:08.107Z,37.20
2017-08-19T09:06:35.699Z,37.10
2017-08-19T09:09:03.608Z,37.90
2017-08-19T09:11:31.965Z,33.80
2017-08-19T09:13:59.572Z,33.70
2017-08-19T09:16:27.342Z,34.30
2017-08-19T09:18:54.913Z,34.10
2017-08-19T09:21:22.516Z,34.40
2017-08-19T09:23:50.857Z,36.60
2017-08-19T09:26:18.836Z,36.60
2017-08-19T09:28:46.512Z,36.50
2017-08-19T09:31:14.120Z,34.30
2017-08-19T09:33:41.756Z,33.60
2017-08-19T09:36:10.094Z,31.90
2017-08-19T09:38:38.032Z,31.90
2017-08-19T09:41:05.736Z,33.70
2017-08-19T09:43:34.387Z,35.00
2017-08-19T09:46:01.962Z,35.00
2017-08-19T09:48:30.368Z,35.60
2017-08-19T09:50:58.009Z,35.70
2017-08-19T09:53:25.584Z,35.00
2017-08-19T09:55:53.192Z,35.40
2017-08-19T09:58:20.769Z,36.00
2017-08-19T10:00:48.605Z,36.40
2017-08-19T10:03:16.996Z,36.90
2017-08-19T10:05:44.588Z,36.80
2017-08-19T10:11:21.262Z,35.60
2017-08-19T10:13:48.859Z,35.50
2017-08-19T10:16:16.429Z,34.60
2017-08-19T10:18:44.018Z,35.80
2017-08-19T10:21:11.592Z,35.50
2017-08-19T10:23:39.462Z,35.40
2017-08-19T10:26:07.051Z,36.20
2017-08-19T10:28:34.676Z,36.30
2017-08-19T10:31:02.321Z,37.40
2017-08-19T10:33:29.904Z,38.40
2017-08-19T10:35:57.882Z,38.80
2017-08-19T10:38:25.482Z,37.80
2017-08-19T10:40:53.060Z,36.80
2017-08-19T10:43:21.434Z,33.60
2017-08-19T10:45:49.025Z,33.50
2017-08-19T10:48:16.654Z,33.70
2017-08-19T10:50:45.018Z,34.50
2017-08-19T10:53:12.946Z,34.50
2017-08-19T10:55:40.523Z,34.30
2017-08-19T10:58:08.098Z,35.40
2017-08-19T11:00:35.720Z,36.50
2017-08-19T11:03:03.332Z,37.90
2017-08-19T11:05:31.721Z,36.10
2017-08-19T11:08:00.054Z,36.10
2017-08-19T11:10:27.947Z,36.10
2017-08-19T11:12:55.529Z,37.20
2017-08-19T11:15:23.899Z,37.00
2017-08-19T11:17:52.276Z,36.90
2017-08-19T11:20:19.851Z,36.90
2017-08-19T11:22:47.539Z,36.10
2017-08-19T11:25:15.181Z,36.50
2017-08-19T11:27:43.068Z,35.30
2017-08-19T11:30:10.646Z,35.70
2017-08-19T11:32:38.237Z,35.60
2017-08-19T11:35:06.680Z,35.10
2017-08-19T11:37:34.302Z,35.10
2017-08-19T11:40:01.900Z,33.50
2017-08-19T11:42:29.522Z,34.70
2017-08-19T11:44:57.447Z,36.00
2017-08-19T11:47:25.043Z,36.10
2017-08-19T11:49:52.603Z,36.80
2017-08-19T11:52:20.952Z,34.00
2017-08-19T11:54:48.661Z,34.00
2017-08-19T11:57:16.256Z,34.90
2017-08-19T11:59:43.829Z,35.70
2017-08-19T12:02:11.687Z,35.10
2017-08-19T12:04:39.279Z,33.80
2017-08-19T12:07:07.645Z,31.00
2017-08-19T12:09:35.235Z,30.90
2017-08-19T12:12:02.813Z,30.90
2017-08-19T12:14:30.424Z,31.10
2017-08-19T12:16:58.011Z,32.30
2017-08-19T12:19:25.865Z,33.90
2017-08-19T12:21:53.457Z,34.00
2017-08-19T12:24:21.040Z,32.50
2017-08-19T12:26:48.680Z,31.50
2017-08-19T12:29:16.258Z,30.50
2017-08-19T12:31:43.860Z,29.30
2017-08-19T12:34:12.190Z,30.80
2017-08-19T12:36:40.066Z,30.70
2017-08-19T12:39:07.624Z,30.80
2017-08-19T12:41:35.203Z,30.20
2017-08-19T12:44:02.794Z,29.80
2017-08-19T12:46:30.402Z,29.60
2017-08-19T12:48:58.253Z,29.20
2017-08-19T12:51:25.814Z,27.60
2017-08-19T12:53:53.468Z,27.10
2017-08-19T12:56:21.124Z,27.50
2017-08-19T12:58:48.696Z,27.60
2017-08-19T13:01:16.270Z,27.50
2017-08-19T13:03:43.855Z,26.90
2017-08-19T13:06:11.828Z,25.90
2017-08-19T13:08:39.398Z,25.40
2017-08-19T13:11:07.756Z,25.90
2017-08-19T13:13:35.379Z,25.80
2017-08-19T13:16:03.059Z,26.10
2017-08-19T13:18:30.673Z,26.60
2017-08-19T13:20:58.245Z,26.90
2017-08-19T13:23:26.147Z,26.90
2017-08-19T13:25:53.706Z,26.30
2017-08-19T13:28:21.290Z,26.70
2017-08-19T13:30:48.956Z,26.90
2017-08-19T13:33:16.549Z,26.40
2017-08-19T13:35:44.396Z,26.50
2017-08-19T13:38:12.007Z,26.60
2017-08-19T13:40:39.565Z,27.10
2017-08-19T13:43:07.169Z,27.80
2017-08-19T13:45:34.790Z,27.70
2017-08-19T13:48:02.409Z,27.40
2017-08-19T13:50:29.997Z,26.70
2017-08-19T13:52:57.890Z,26.00
2017-08-19T13:55:25.468Z,26.00
2017-08-19T13:57:53.053Z,25.50
2017-08-19T14:00:20.635Z,25.40
2017-08-19T14:02:48.215Z,25.40
2017-08-19T14:05:15.827Z,25.30
2017-08-19T14:07:43.399Z,25.40
2017-08-19T14:10:11.307Z,25.60
2017-08-19T14:12:38.899Z,25.60
2017-08-19T14:15:06.517Z,26.00
2017-08-19T14:17:34.112Z,26.10
2017-08-19T14:20:01.686Z,25.50
2017-08-19T14:22:29.297Z,24.80
2017-08-19T14:24:56.884Z,23.80
2017-08-19T14:27:24.732Z,23.60
2017-08-19T14:29:52.340Z,23.70
2017-08-19T14:32:19.917Z,23.20
2017-08-19T14:34:47.642Z,22.80
2017-08-19T14:37:15.227Z,23.10
2017-08-19T14:39:42.829Z,23.70
2017-08-19T14:42:10.411Z,23.80
2017-08-19T14:44:38.378Z,23.60
2017-08-19T14:47:05.987Z,23.50
2017-08-19T14:49:33.572Z,23.30
2017-08-19T14:52:01.184Z,23.10
2017-08-19T14:54:29.536Z,23.10
2017-08-19T14:56:57.256Z,23.10
2017-08-19T14:59:24.847Z,23.10
2017-08-19T15:01:52.817Z,23.30
2017-08-19T15:04:20.408Z,23.50
2017-08-19T15:06:48.788Z,23.60
2017-08-19T15:09:16.388Z,23.60
2017-08-19T15:11:43.996Z,23.40
2017-08-19T15:14:11.599Z,23.20
2017-08-19T15:16:39.229Z,22.90
2017-08-19T15:19:07.973Z,22.90
2017-08-19T15:21:35.549Z,22.80
2017-08-19T15:24:03.146Z,22.80
2017-08-19T15:26:30.758Z,22.70
2017-08-19T15:28:58.365Z,22.60
2017-08-19T15:31:25.970Z,22.80
2017-08-19T15:33:53.515Z,22.70
2017-08-19T15:36:21.371Z,22.60
2017-08-19T15:38:48.953Z,22.40
2017-08-19T15:41:16.537Z,22.60
2017-08-19T15:43:44.141Z,22.40
2017-08-19T15:46:11.720Z,22.10
2017-08-19T15:48:39.313Z,21.60
2017-08-19T15:51:06.914Z,21.50
2017-08-19T15:53:34.839Z,21.70
2017-08-19T15:56:02.429Z,22.00
2017-08-19T15:58:30.805Z,21.90
2017-08-19T16:00:59.220Z,22.00
2017-08-19T16:03:26.774Z,22.00
2017-08-19T16:05:54.615Z,22.00
2017-08-19T16:08:22.225Z,21.90
2017-08-19T16:10:49.833Z,21.60
2017-08-19T16:13:18.210Z,21.20
2017-08-19T16:15:46.572Z,21.00
2017-08-19T16:18:14.956Z,20.90
2017-08-19T16:20:43.318Z,21.00
2017-08-19T16:23:11.187Z,21.00
2017-08-19T16:25:38.802Z,21.20
2017-08-19T16:28:06.384Z,21.30
2017-08-19T16:30:33.981Z,21.40
2017-08-19T16:33:01.722Z,21.40
2017-08-19T16:35:29.372Z,21.40
2017-08-19T16:37:56.957Z,21.40
2017-08-19T16:40:24.900Z,21.30
2017-08-19T16:42:52.479Z,21.40
2017-08-19T16:45:20.052Z,21.40
2017-08-19T16:47:48.449Z,21.90
2017-08-19T16:50:16.022Z,21.90
2017-08-19T16:52:43.635Z,22.00
2017-08-19T16:55:11.210Z,22.10
2017-08-19T16:57:40.066Z,22.00
2017-08-19T17:00:07.671Z,22.00
2017-08-19T17:02:35.359Z,21.80
2017-08-19T17:05:02.999Z,21.50
2017-08-19T17:07:30.579Z,21.20
2017-08-19T17:09:58.183Z,21.10
2017-08-19T17:12:25.741Z,21.00
2017-08-19T17:14:53.682Z,21.00
2017-08-19T17:17:21.261Z,20.90
2017-08-19T17:19:48.842Z,20.90
2017-08-19T17:22:16.480Z,20.90
2017-08-19T17:24:44.041Z,20.90
2017-08-19T17:27:11.664Z,20.90
2017-08-19T17:29:39.249Z,20.80
2017-08-19T17:32:07.117Z,20.80
2017-08-19T17:34:34.706Z,20.80
2017-08-19T17:37:02.550Z,20.80
2017-08-19T17:39:30.165Z,20.70
2017-08-19T17:41:57.755Z,20.50
2017-08-19T17:44:25.431Z,20.40
2017-08-19T17:46:53.016Z,20.50
2017-08-19T17:49:21.677Z,20.40
2017-08-19T17:51:49.294Z,20.40
2017-08-19T17:54:16.850Z,20.30
2017-08-19T17:56:44.445Z,20.20
2017-08-19T17:59:12.028Z,20.10
2017-08-19T18:01:39.620Z,20.00
2017-08-19T18:04:07.268Z,20.00
2017-08-19T18:06:35.923Z,19.70
2017-08-19T18:09:03.513Z,19.60
2017-08-19T18:11:31.879Z,19.20
2017-08-19T18:13:59.483Z,19.20
2017-08-19T18:16:27.067Z,18.80
2017-08-19T18:18:54.937Z,18.50
2017-08-19T18:21:22.524Z,18.40
2017-08-19T18:23:50.103Z,18.20
2017-08-19T18:26:18.468Z,17.80
2017-08-19T18:28:46.137Z,17.80
2017-08-19T18:31:14.024Z,17.70
2017-08-19T18:33:41.630Z,17.60
2017-08-19T18:36:09.211Z,17.50
2017-08-19T18:38:36.824Z,17.60
2017-08-19T18:41:04.380Z,17.60
2017-08-19T18:43:31.990Z,17.50
2017-08-19T18:46:00.344Z,17.40
2017-08-19T18:48:28.305Z,17.40
2017-08-19T18:50:56.148Z,17.30
2017-08-19T18:53:23.726Z,17.20
2017-08-19T18:55:52.063Z,17.10
2017-08-19T18:58:19.657Z,17.00
2017-08-19T19:00:47.249Z,17.00
2017-08-19T19:03:14.862Z,16.90
2017-08-19T19:05:42.735Z,16.80
2017-08-19T19:08:10.326Z,16.70
2017-08-19T19:10:37.910Z,16.60
2017-08-19T19:13:05.526Z,16.50
2017-08-19T19:15:33.115Z,16.40
2017-08-19T19:18:00.968Z,16.40
2017-08-19T19:20:28.599Z,16.40
2017-08-19T19:22:56.170Z,16.30
2017-08-19T19:25:23.783Z,16.40
2017-08-19T19:27:51.398Z,16.40
2017-08-19T19:30:19.023Z,16.50
2017-08-19T19:32:46.644Z,16.60
2017-08-19T19:35:14.520Z,16.60
2017-08-19T19:37:42.864Z,16.70
2017-08-19T19:40:10.665Z,16.60
2017-08-19T19:42:39.083Z,16.60
2017-08-19T19:45:06.677Z,16.60
2017-08-19T19:47:34.280Z,16.60
2017-08-19T19:50:01.883Z,16.60
2017-08-19T19:52:29.803Z,16.60
2017-08-19T19:54:57.424Z,16.60
2017-08-19T19:57:24.993Z,16.50
2017-08-19T19:59:52.601Z,16.50
2017-08-19T20:02:20.285Z,16.50
2017-08-19T20:04:47.982Z,16.50
2017-08-19T20:07:15.610Z,16.50
2017-08-19T20:09:43.200Z,16.50
2017-08-19T20:12:10.808Z,16.40
2017-08-19T20:14:38.391Z,16.40
2017-08-19T20:17:06.263Z,16.40
2017-08-19T20:19:33.832Z,16.30
2017-08-19T20:22:01.423Z,16.30
2017-08-19T20:24:29.803Z,16.20
2017-08-19T20:26:57.360Z,16.20
2017-08-19T20:29:25.356Z,16.20
2017-08-19T20:31:52.998Z,16.20
2017-08-19T20:34:21.396Z,16.20
2017-08-19T20:36:49.010Z,16.20
2017-08-19T20:39:16.607Z,16.20
2017-08-19T20:41:44.233Z,16.20
2017-08-19T20:44:11.832Z,16.10
2017-08-19T20:46:39.704Z,16.10
2017-08-19T20:49:07.294Z,16.10
2017-08-19T20:51:35.271Z,16.00
2017-08-19T20:54:03.071Z,15.90
2017-08-19T20:56:31.419Z,15.80
2017-08-19T20:58:59.084Z,15.70
2017-08-19T21:01:26.679Z,15.70
2017-08-19T21:03:55.427Z,15.50
2017-08-19T21:06:23.052Z,15.50
2017-08-19T21:08:50.670Z,15.40
2017-08-19T21:11:19.080Z,15.30
2017-08-19T21:13:46.730Z,15.30
2017-08-19T21:16:14.331Z,15.30
2017-08-19T21:18:41.952Z,15.30
2017-08-19T21:21:09.891Z,15.20
2017-08-19T21:23:37.467Z,15.20
2017-08-19T21:26:05.808Z,15.00
2017-08-19T21:28:33.627Z,15.00
2017-08-19T21:31:01.204Z,14.90
2017-08-19T21:33:28.812Z,14.80
2017-08-19T21:35:56.400Z,14.60
2017-08-19T21:38:24.313Z,14.50
2017-08-19T21:40:51.885Z,14.50
2017-08-19T21:43:19.478Z,14.40
2017-08-19T21:45:47.067Z,14.30
2017-08-19T21:48:14.739Z,14.30
2017-08-19T21:50:42.317Z,14.20
2017-08-19T21:53:09.890Z,14.20
2017-08-19T21:55:37.865Z,14.30
2017-08-19T21:58:05.451Z,14.20
2017-08-19T22:00:33.155Z,14.00
2017-08-19T22:03:00.768Z,13.90
2017-08-19T22:05:28.326Z,13.70
2017-08-19T22:07:57.044Z,13.70
2017-08-19T22:10:24.645Z,13.70
2017-08-19T22:12:52.228Z,13.70
2017-08-19T22:15:20.630Z,13.70
2017-08-19T22:17:48.209Z,13.70
2017-08-19T22:20:15.824Z,13.70
2017-08-19T22:22:43.446Z,13.60
2017-08-19T22:25:11.323Z,13.50
2017-08-19T22:27:38.921Z,13.50
2017-08-19T22:30:07.441Z,13.30
2017-08-19T22:32:35.058Z,13.30
2017-08-19T22:35:03.573Z,13.50
2017-08-19T22:37:31.237Z,13.40
2017-08-19T22:39:58.793Z,13.30
2017-08-19T22:42:26.707Z,13.10
2017-08-19T22:44:54.289Z,13.10
2017-08-19T22:47:21.868Z,13.00
2017-08-19T22:49:49.472Z,12.90
2017-08-19T22:52:17.084Z,12.90
2017-08-19T22:54:44.764Z,12.90
2017-08-19T22:57:12.340Z,12.90
2017-08-19T22:59:40.310Z,13.00
2017-08-19T23:02:07.874Z,13.00
2017-08-19T23:04:35.456Z,13.20
2017-08-19T23:07:03.063Z,13.30
2017-08-19T23:09:30.626Z,13.30
2017-08-19T23:11:58.219Z,13.30
2017-08-19T23:14:25.963Z,13.40
2017-08-19T23:16:53.853Z,13.40
2017-08-19T23:19:21.470Z,13.40
2017-08-19T23:21:49.045Z,13.40
2017-08-19T23:24:16.650Z,13.50
2017-08-19T23:26:44.227Z,13.50
2017-08-19T23:29:12.569Z,13.60
2017-08-19T23:31:40.102Z,13.60
2017-08-19T23:34:07.984Z,13.60
2017-08-19T23:36:35.624Z,13.60
2017-08-19T23:39:03.191Z,13.60
2017-08-19T23:41:30.770Z,13.60
2017-08-19T23:43:58.399Z,13.60
2017-08-19T23:46:26.016Z,13.60
2017-08-19T23:48:54.355Z,13.70
2017-08-19T23:51:22.325Z,13.70
2017-08-19T23:53:49.904Z,13.70
2017-08-19T23:56:17.451Z,13.70
2017-08-19T23:58:45.056Z,13.70
